sensor_id;sensor_type;location;lat;lon;timestamp;P1;durP1;ratioP1;P2;durP2;ratioP2
82948;SDS011;72736;50.236;18.876;2023-10-19T00:02:35;97.50;;;32.40;;
82948;SDS011;72736;50.236;18.876;2023-10-19T00:07:40;116.50;;;36.50;;
82948;SDS011;72736;50.236;18.876;2023-10-19T00:12:47;85.20;;;28.30;;
82948;SDS011;72736;50.236;18.876;2023-10-19T00:18:00;56.40;;;22.60;;
82948;SDS011;72736;50.236;18.876;2023-10-19T00:23:23;56.00;;;21.60;;
82948;SDS011;72736;50.236;18.876;2023-10-19T00:28:35;40.10;;;20.10;;
82948;SDS011;72736;50.236;18.876;2023-10-19T00:38:46;39.00;;;17.00;;
82948;SDS011;72736;50.236;18.876;2023-10-19T00:43:55;165.50;;;45.40;;
82948;SDS011;72736;50.236;18.876;2023-10-19T00:49:06;90.70;;;29.20;;
82948;SDS011;72736;50.236;18.876;2023-10-19T00:54:17;46.60;;;19.20;;
82948;SDS011;72736;50.236;18.876;2023-10-19T00:59:29;64.20;;;23.70;;
82948;SDS011;72736;50.236;18.876;2023-10-19T01:04:38;175.80;;;48.80;;
82948;SDS011;72736;50.236;18.876;2023-10-19T01:09:45;149.20;;;42.00;;
82948;SDS011;72736;50.236;18.876;2023-10-19T01:15:02;196.80;;;52.90;;
82948;SDS011;72736;50.236;18.876;2023-10-19T01:20:16;174.00;;;52.10;;
82948;SDS011;72736;50.236;18.876;2023-10-19T01:25:25;137.00;;;42.30;;
82948;SDS011;72736;50.236;18.876;2023-10-19T01:30:38;109.20;;;35.70;;
82948;SDS011;72736;50.236;18.876;2023-10-19T01:35:45;49.80;;;21.70;;
82948;SDS011;72736;50.236;18.876;2023-10-19T01:41:08;42.20;;;18.00;;
82948;SDS011;72736;50.236;18.876;2023-10-19T01:46:20;37.80;;;17.20;;
82948;SDS011;72736;50.236;18.876;2023-10-19T01:51:29;39.60;;;16.00;;
82948;SDS011;72736;50.236;18.876;2023-10-19T01:56:41;36.50;;;17.50;;
82948;SDS011;72736;50.236;18.876;2023-10-19T02:01:47;36.50;;;16.40;;
82948;SDS011;72736;50.236;18.876;2023-10-19T02:06:54;32.50;;;16.20;;
82948;SDS011;72736;50.236;18.876;2023-10-19T02:12:03;36.40;;;16.40;;
82948;SDS011;72736;50.236;18.876;2023-10-19T02:17:10;36.80;;;17.30;;
82948;SDS011;72736;50.236;18.876;2023-10-19T02:22:18;39.60;;;19.20;;
82948;SDS011;72736;50.236;18.876;2023-10-19T02:27:24;41.70;;;17.80;;
82948;SDS011;72736;50.236;18.876;2023-10-19T02:32:35;36.40;;;16.10;;
82948;SDS011;72736;50.236;18.876;2023-10-19T02:37:41;43.00;;;17.60;;
82948;SDS011;72736;50.236;18.876;2023-10-19T02:42:48;43.10;;;19.20;;
82948;SDS011;72736;50.236;18.876;2023-10-19T02:47:56;31.80;;;15.90;;
82948;SDS011;72736;50.236;18.876;2023-10-19T02:53:03;34.90;;;15.80;;
82948;SDS011;72736;50.236;18.876;2023-10-19T02:58:09;38.70;;;18.50;;
82948;SDS011;72736;50.236;18.876;2023-10-19T03:03:16;38.00;;;16.60;;
82948;SDS011;72736;50.236;18.876;2023-10-19T03:08:22;34.40;;;16.20;;
82948;SDS011;72736;50.236;18.876;2023-10-19T03:13:29;37.70;;;17.20;;
82948;SDS011;72736;50.236;18.876;2023-10-19T03:18:36;35.60;;;18.30;;
82948;SDS011;72736;50.236;18.876;2023-10-19T03:23:42;38.60;;;17.80;;
82948;SDS011;72736;50.236;18.876;2023-10-19T03:28:49;40.30;;;17.20;;
82948;SDS011;72736;50.236;18.876;2023-10-19T03:33:58;39.00;;;18.90;;
82948;SDS011;72736;50.236;18.876;2023-10-19T03:39:08;37.40;;;17.20;;
82948;SDS011;72736;50.236;18.876;2023-10-19T03:44:17;33.80;;;16.60;;
82948;SDS011;72736;50.236;18.876;2023-10-19T03:49:27;43.30;;;18.30;;
82948;SDS011;72736;50.236;18.876;2023-10-19T03:54:39;38.30;;;17.80;;
82948;SDS011;72736;50.236;18.876;2023-10-19T03:59:46;38.80;;;17.40;;
82948;SDS011;72736;50.236;18.876;2023-10-19T04:04:57;33.30;;;17.10;;
82948;SDS011;72736;50.236;18.876;2023-10-19T04:10:05;37.30;;;17.60;;
82948;SDS011;72736;50.236;18.876;2023-10-19T04:15:33;42.40;;;19.10;;
82948;SDS011;72736;50.236;18.876;2023-10-19T04:20:39;34.30;;;16.70;;
82948;SDS011;72736;50.236;18.876;2023-10-19T04:26:01;35.10;;;16.30;;
82948;SDS011;72736;50.236;18.876;2023-10-19T04:31:13;38.30;;;18.00;;
82948;SDS011;72736;50.236;18.876;2023-10-19T04:36:19;37.50;;;16.10;;
82948;SDS011;72736;50.236;18.876;2023-10-19T04:41:25;37.00;;;16.30;;
82948;SDS011;72736;50.236;18.876;2023-10-19T04:46:31;38.00;;;18.70;;
82948;SDS011;72736;50.236;18.876;2023-10-19T04:51:37;37.80;;;18.30;;
82948;SDS011;72736;50.236;18.876;2023-10-19T04:56:43;39.60;;;19.10;;
82948;SDS011;72736;50.236;18.876;2023-10-19T05:01:48;37.20;;;16.50;;
82948;SDS011;72736;50.236;18.876;2023-10-19T05:06:55;38.00;;;18.40;;
82948;SDS011;72736;50.236;18.876;2023-10-19T05:12:00;31.70;;;16.50;;
82948;SDS011;72736;50.236;18.876;2023-10-19T05:17:06;37.30;;;18.60;;
82948;SDS011;72736;50.236;18.876;2023-10-19T05:27:17;41.10;;;16.90;;
82948;SDS011;72736;50.236;18.876;2023-10-19T05:32:23;34.80;;;16.80;;
82948;SDS011;72736;50.236;18.876;2023-10-19T05:37:29;33.60;;;17.00;;
82948;SDS011;72736;50.236;18.876;2023-10-19T05:42:35;35.50;;;18.00;;
82948;SDS011;72736;50.236;18.876;2023-10-19T05:47:41;33.40;;;17.00;;
82948;SDS011;72736;50.236;18.876;2023-10-19T05:57:52;32.60;;;15.00;;
82948;SDS011;72736;50.236;18.876;2023-10-19T06:02:58;28.60;;;14.70;;
82948;SDS011;72736;50.236;18.876;2023-10-19T06:08:05;30.40;;;15.60;;
82948;SDS011;72736;50.236;18.876;2023-10-19T06:13:11;33.90;;;16.60;;
82948;SDS011;72736;50.236;18.876;2023-10-19T06:18:17;40.70;;;20.10;;
82948;SDS011;72736;50.236;18.876;2023-10-19T06:23:23;37.80;;;17.80;;
82948;SDS011;72736;50.236;18.876;2023-10-19T06:28:28;34.70;;;16.90;;
82948;SDS011;72736;50.236;18.876;2023-10-19T06:33:41;35.70;;;16.20;;
82948;SDS011;72736;50.236;18.876;2023-10-19T06:38:47;34.90;;;16.40;;
82948;SDS011;72736;50.236;18.876;2023-10-19T06:43:54;31.80;;;16.30;;
82948;SDS011;72736;50.236;18.876;2023-10-19T06:49:01;31.80;;;15.30;;
82948;SDS011;72736;50.236;18.876;2023-10-19T06:54:07;37.00;;;15.80;;
82948;SDS011;72736;50.236;18.876;2023-10-19T06:59:17;32.30;;;17.00;;
82948;SDS011;72736;50.236;18.876;2023-10-19T07:04:37;33.70;;;16.00;;
82948;SDS011;72736;50.236;18.876;2023-10-19T07:09:43;31.00;;;14.80;;
82948;SDS011;72736;50.236;18.876;2023-10-19T07:14:49;32.10;;;13.60;;
82948;SDS011;72736;50.236;18.876;2023-10-19T07:19:55;28.50;;;13.80;;
82948;SDS011;72736;50.236;18.876;2023-10-19T07:25:00;30.60;;;13.60;;
82948;SDS011;72736;50.236;18.876;2023-10-19T07:30:09;28.00;;;13.90;;
82948;SDS011;72736;50.236;18.876;2023-10-19T07:35:18;28.90;;;14.10;;
82948;SDS011;72736;50.236;18.876;2023-10-19T07:40:24;27.10;;;13.70;;
82948;SDS011;72736;50.236;18.876;2023-10-19T07:45:31;25.60;;;12.60;;
82948;SDS011;72736;50.236;18.876;2023-10-19T07:50:38;22.60;;;11.70;;
82948;SDS011;72736;50.236;18.876;2023-10-19T07:55:45;20.30;;;11.40;;
82948;SDS011;72736;50.236;18.876;2023-10-19T08:00:51;22.90;;;11.40;;
82948;SDS011;72736;50.236;18.876;2023-10-19T08:05:57;19.90;;;10.00;;
82948;SDS011;72736;50.236;18.876;2023-10-19T08:11:03;17.40;;;9.60;;
82948;SDS011;72736;50.236;18.876;2023-10-19T08:21:15;16.90;;;8.90;;
82948;SDS011;72736;50.236;18.876;2023-10-19T08:26:21;20.70;;;9.70;;
82948;SDS011;72736;50.236;18.876;2023-10-19T08:31:29;20.20;;;9.00;;
82948;SDS011;72736;50.236;18.876;2023-10-19T08:36:35;18.50;;;8.50;;
82948;SDS011;72736;50.236;18.876;2023-10-19T08:41:41;16.30;;;8.00;;
82948;SDS011;72736;50.236;18.876;2023-10-19T08:46:47;18.10;;;9.10;;
82948;SDS011;72736;50.236;18.876;2023-10-19T08:51:54;17.80;;;9.20;;
82948;SDS011;72736;50.236;18.876;2023-10-19T08:57:07;16.80;;;8.70;;
82948;SDS011;72736;50.236;18.876;2023-10-19T09:02:14;15.00;;;8.10;;
82948;SDS011;72736;50.236;18.876;2023-10-19T09:07:21;17.60;;;8.40;;
82948;SDS011;72736;50.236;18.876;2023-10-19T09:12:26;20.80;;;9.20;;
82948;SDS011;72736;50.236;18.876;2023-10-19T09:17:33;20.90;;;9.50;;
82948;SDS011;72736;50.236;18.876;2023-10-19T09:22:38;17.30;;;9.50;;
82948;SDS011;72736;50.236;18.876;2023-10-19T09:27:47;20.30;;;9.80;;
82948;SDS011;72736;50.236;18.876;2023-10-19T09:32:54;20.70;;;10.70;;
82948;SDS011;72736;50.236;18.876;2023-10-19T09:38:01;16.00;;;9.70;;
82948;SDS011;72736;50.236;18.876;2023-10-19T09:43:12;22.20;;;10.50;;
82948;SDS011;72736;50.236;18.876;2023-10-19T09:48:29;22.70;;;10.90;;
82948;SDS011;72736;50.236;18.876;2023-10-19T09:53:39;22.00;;;11.40;;
82948;SDS011;72736;50.236;18.876;2023-10-19T09:58:46;28.10;;;12.20;;
82948;SDS011;72736;50.236;18.876;2023-10-19T10:03:57;24.80;;;12.60;;
82948;SDS011;72736;50.236;18.876;2023-10-19T10:09:05;28.60;;;13.30;;
82948;SDS011;72736;50.236;18.876;2023-10-19T10:14:22;23.50;;;12.30;;
82948;SDS011;72736;50.236;18.876;2023-10-19T10:19:34;23.60;;;13.50;;
82948;SDS011;72736;50.236;18.876;2023-10-19T10:24:41;28.50;;;13.20;;
82948;SDS011;72736;50.236;18.876;2023-10-19T10:29:55;26.70;;;13.20;;
82948;SDS011;72736;50.236;18.876;2023-10-19T10:35:02;23.40;;;13.20;;
82948;SDS011;72736;50.236;18.876;2023-10-19T10:40:12;25.40;;;14.10;;
82948;SDS011;72736;50.236;18.876;2023-10-19T10:50:25;27.00;;;14.10;;
82948;SDS011;72736;50.236;18.876;2023-10-19T10:55:31;28.60;;;14.60;;
82948;SDS011;72736;50.236;18.876;2023-10-19T11:00:43;27.70;;;15.30;;
82948;SDS011;72736;50.236;18.876;2023-10-19T11:05:50;29.40;;;16.20;;
82948;SDS011;72736;50.236;18.876;2023-10-19T11:11:01;29.00;;;15.40;;
82948;SDS011;72736;50.236;18.876;2023-10-19T11:16:08;32.40;;;15.60;;
82948;SDS011;72736;50.236;18.876;2023-10-19T11:21:14;29.10;;;15.10;;
82948;SDS011;72736;50.236;18.876;2023-10-19T11:26:22;25.30;;;14.70;;
82948;SDS011;72736;50.236;18.876;2023-10-19T11:31:28;26.90;;;14.90;;
82948;SDS011;72736;50.236;18.876;2023-10-19T11:36:41;26.80;;;15.30;;
82948;SDS011;72736;50.236;18.876;2023-10-19T11:41:47;24.30;;;14.40;;
82948;SDS011;72736;50.236;18.876;2023-10-19T11:46:53;28.50;;;14.60;;
82948;SDS011;72736;50.236;18.876;2023-10-19T11:52:00;27.60;;;15.20;;
82948;SDS011;72736;50.236;18.876;2023-10-19T11:57:07;27.30;;;15.30;;
82948;SDS011;72736;50.236;18.876;2023-10-19T12:02:15;30.10;;;17.00;;
82948;SDS011;72736;50.236;18.876;2023-10-19T12:07:22;30.70;;;16.60;;
82948;SDS011;72736;50.236;18.876;2023-10-19T12:12:28;31.00;;;18.10;;
82948;SDS011;72736;50.236;18.876;2023-10-19T12:17:41;26.90;;;16.30;;
82948;SDS011;72736;50.236;18.876;2023-10-19T12:22:47;29.50;;;16.70;;
82948;SDS011;72736;50.236;18.876;2023-10-19T12:27:57;28.80;;;16.40;;
82948;SDS011;72736;50.236;18.876;2023-10-19T12:33:04;36.30;;;20.30;;
82948;SDS011;72736;50.236;18.876;2023-10-19T12:38:14;41.90;;;20.20;;
82948;SDS011;72736;50.236;18.876;2023-10-19T12:43:20;64.90;;;26.40;;
82948;SDS011;72736;50.236;18.876;2023-10-19T12:48:26;31.80;;;15.70;;
82948;SDS011;72736;50.236;18.876;2023-10-19T12:53:36;29.70;;;15.50;;
82948;SDS011;72736;50.236;18.876;2023-10-19T12:58:42;29.10;;;15.90;;
82948;SDS011;72736;50.236;18.876;2023-10-19T13:03:48;29.40;;;15.30;;
82948;SDS011;72736;50.236;18.876;2023-10-19T13:08:55;27.90;;;14.80;;
82948;SDS011;72736;50.236;18.876;2023-10-19T13:14:00;25.60;;;14.80;;
82948;SDS011;72736;50.236;18.876;2023-10-19T13:19:09;30.30;;;16.50;;
82948;SDS011;72736;50.236;18.876;2023-10-19T13:24:16;26.10;;;14.70;;
82948;SDS011;72736;50.236;18.876;2023-10-19T13:29:23;26.70;;;15.30;;
82948;SDS011;72736;50.236;18.876;2023-10-19T13:34:30;28.80;;;16.30;;
82948;SDS011;72736;50.236;18.876;2023-10-19T13:39:36;32.00;;;16.70;;
82948;SDS011;72736;50.236;18.876;2023-10-19T13:44:43;32.60;;;16.80;;
82948;SDS011;72736;50.236;18.876;2023-10-19T13:49:49;33.20;;;16.50;;
82948;SDS011;72736;50.236;18.876;2023-10-19T13:54:55;26.80;;;15.20;;
82948;SDS011;72736;50.236;18.876;2023-10-19T14:00:01;29.90;;;15.60;;
82948;SDS011;72736;50.236;18.876;2023-10-19T14:05:10;32.60;;;17.10;;
82948;SDS011;72736;50.236;18.876;2023-10-19T14:10:17;31.20;;;17.20;;
82948;SDS011;72736;50.236;18.876;2023-10-19T14:15:24;31.60;;;17.20;;
82948;SDS011;72736;50.236;18.876;2023-10-19T14:25:37;43.00;;;21.10;;
82948;SDS011;72736;50.236;18.876;2023-10-19T14:30:45;33.70;;;17.60;;
82948;SDS011;72736;50.236;18.876;2023-10-19T14:35:55;42.60;;;21.20;;
82948;SDS011;72736;50.236;18.876;2023-10-19T14:41:01;56.20;;;26.80;;
82948;SDS011;72736;50.236;18.876;2023-10-19T14:46:08;62.80;;;28.80;;
82948;SDS011;72736;50.236;18.876;2023-10-19T14:51:14;48.50;;;23.00;;
82948;SDS011;72736;50.236;18.876;2023-10-19T14:56:19;42.90;;;22.80;;
82948;SDS011;72736;50.236;18.876;2023-10-19T15:01:25;37.70;;;20.20;;
82948;SDS011;72736;50.236;18.876;2023-10-19T15:06:32;151.70;;;59.40;;
82948;SDS011;72736;50.236;18.876;2023-10-19T15:11:42;254.20;;;106.20;;
82948;SDS011;72736;50.236;18.876;2023-10-19T15:16:48;232.60;;;104.00;;
82948;SDS011;72736;50.236;18.876;2023-10-19T15:21:54;141.40;;;62.50;;
82948;SDS011;72736;50.236;18.876;2023-10-19T15:27:00;95.00;;;45.50;;
82948;SDS011;72736;50.236;18.876;2023-10-19T15:32:06;105.80;;;52.20;;
82948;SDS011;72736;50.236;18.876;2023-10-19T15:37:12;87.90;;;44.80;;
82948;SDS011;72736;50.236;18.876;2023-10-19T15:42:18;74.50;;;40.00;;
82948;SDS011;72736;50.236;18.876;2023-10-19T15:47:25;60.90;;;33.40;;
82948;SDS011;72736;50.236;18.876;2023-10-19T15:52:31;53.50;;;28.20;;
82948;SDS011;72736;50.236;18.876;2023-10-19T15:57:38;52.30;;;26.60;;
82948;SDS011;72736;50.236;18.876;2023-10-19T16:02:45;51.60;;;28.60;;
82948;SDS011;72736;50.236;18.876;2023-10-19T16:12:55;48.70;;;25.10;;
82948;SDS011;72736;50.236;18.876;2023-10-19T16:18:01;49.50;;;25.50;;
82948;SDS011;72736;50.236;18.876;2023-10-19T16:23:09;51.90;;;27.30;;
82948;SDS011;72736;50.236;18.876;2023-10-19T16:28:14;51.30;;;27.20;;
82948;SDS011;72736;50.236;18.876;2023-10-19T16:33:20;42.00;;;22.70;;
82948;SDS011;72736;50.236;18.876;2023-10-19T16:38:26;47.60;;;25.40;;
82948;SDS011;72736;50.236;18.876;2023-10-19T16:43:32;90.90;;;42.30;;
82948;SDS011;72736;50.236;18.876;2023-10-19T16:48:37;114.60;;;53.90;;
82948;SDS011;72736;50.236;18.876;2023-10-19T16:53:43;144.10;;;62.70;;
82948;SDS011;72736;50.236;18.876;2023-10-19T16:58:51;136.60;;;60.40;;
82948;SDS011;72736;50.236;18.876;2023-10-19T17:03:57;134.10;;;62.80;;
82948;SDS011;72736;50.236;18.876;2023-10-19T17:09:09;75.30;;;37.10;;
82948;SDS011;72736;50.236;18.876;2023-10-19T17:14:21;42.70;;;23.80;;
82948;SDS011;72736;50.236;18.876;2023-10-19T17:24:31;35.90;;;19.70;;
82948;SDS011;72736;50.236;18.876;2023-10-19T17:29:37;39.70;;;19.20;;
82948;SDS011;72736;50.236;18.876;2023-10-19T17:34:43;36.50;;;18.80;;
82948;SDS011;72736;50.236;18.876;2023-10-19T17:39:48;34.70;;;20.30;;
82948;SDS011;72736;50.236;18.876;2023-10-19T17:44:57;40.60;;;19.30;;
82948;SDS011;72736;50.236;18.876;2023-10-19T17:50:03;37.00;;;20.90;;
82948;SDS011;72736;50.236;18.876;2023-10-19T17:55:13;43.00;;;22.40;;
82948;SDS011;72736;50.236;18.876;2023-10-19T18:00:21;45.80;;;24.00;;
82948;SDS011;72736;50.236;18.876;2023-10-19T18:05:27;48.20;;;24.90;;
82948;SDS011;72736;50.236;18.876;2023-10-19T18:10:34;60.40;;;32.90;;
82948;SDS011;72736;50.236;18.876;2023-10-19T18:15:40;58.80;;;31.90;;
82948;SDS011;72736;50.236;18.876;2023-10-19T18:20:48;53.90;;;27.60;;
82948;SDS011;72736;50.236;18.876;2023-10-19T18:25:54;49.50;;;26.70;;
82948;SDS011;72736;50.236;18.876;2023-10-19T18:31:00;46.10;;;25.50;;
82948;SDS011;72736;50.236;18.876;2023-10-19T18:36:08;40.50;;;21.00;;
82948;SDS011;72736;50.236;18.876;2023-10-19T18:41:16;35.70;;;19.10;;
82948;SDS011;72736;50.236;18.876;2023-10-19T18:46:24;38.80;;;21.50;;
82948;SDS011;72736;50.236;18.876;2023-10-19T18:51:31;45.10;;;22.60;;
82948;SDS011;72736;50.236;18.876;2023-10-19T18:56:38;44.00;;;25.80;;
82948;SDS011;72736;50.236;18.876;2023-10-19T19:01:44;58.90;;;30.30;;
82948;SDS011;72736;50.236;18.876;2023-10-19T19:06:51;66.40;;;33.10;;
82948;SDS011;72736;50.236;18.876;2023-10-19T19:11:59;60.90;;;32.20;;
82948;SDS011;72736;50.236;18.876;2023-10-19T19:17:06;58.40;;;32.10;;
82948;SDS011;72736;50.236;18.876;2023-10-19T19:27:16;53.30;;;29.70;;
82948;SDS011;72736;50.236;18.876;2023-10-19T19:32:22;52.50;;;28.80;;
82948;SDS011;72736;50.236;18.876;2023-10-19T19:37:28;63.40;;;32.30;;
82948;SDS011;72736;50.236;18.876;2023-10-19T19:42:37;57.30;;;30.40;;
82948;SDS011;72736;50.236;18.876;2023-10-19T19:47:47;62.00;;;32.20;;
82948;SDS011;72736;50.236;18.876;2023-10-19T19:52:55;63.90;;;32.90;;
82948;SDS011;72736;50.236;18.876;2023-10-19T19:58:00;60.00;;;32.30;;
82948;SDS011;72736;50.236;18.876;2023-10-19T20:03:07;63.70;;;33.70;;
82948;SDS011;72736;50.236;18.876;2023-10-19T20:08:14;62.70;;;32.00;;
82948;SDS011;72736;50.236;18.876;2023-10-19T20:13:20;57.60;;;28.90;;
82948;SDS011;72736;50.236;18.876;2023-10-19T20:23:30;54.50;;;28.90;;
82948;SDS011;72736;50.236;18.876;2023-10-19T20:28:37;59.30;;;31.20;;
82948;SDS011;72736;50.236;18.876;2023-10-19T20:33:43;64.80;;;32.70;;
82948;SDS011;72736;50.236;18.876;2023-10-19T20:38:49;63.10;;;31.50;;
82948;SDS011;72736;50.236;18.876;2023-10-19T20:43:58;68.30;;;31.80;;
82948;SDS011;72736;50.236;18.876;2023-10-19T20:49:05;62.50;;;32.40;;
82948;SDS011;72736;50.236;18.876;2023-10-19T20:54:11;59.10;;;30.50;;
82948;SDS011;72736;50.236;18.876;2023-10-19T20:59:17;58.00;;;32.10;;
82948;SDS011;72736;50.236;18.876;2023-10-19T21:04:24;57.00;;;30.70;;
82948;SDS011;72736;50.236;18.876;2023-10-19T21:09:32;56.40;;;30.90;;
82948;SDS011;72736;50.236;18.876;2023-10-19T21:14:38;61.10;;;31.10;;
82948;SDS011;72736;50.236;18.876;2023-10-19T21:19:43;54.00;;;29.70;;
82948;SDS011;72736;50.236;18.876;2023-10-19T21:24:52;61.30;;;31.10;;
82948;SDS011;72736;50.236;18.876;2023-10-19T21:29:58;62.50;;;34.40;;
82948;SDS011;72736;50.236;18.876;2023-10-19T21:35:04;56.20;;;29.40;;
82948;SDS011;72736;50.236;18.876;2023-10-19T21:40:11;66.00;;;33.30;;
82948;SDS011;72736;50.236;18.876;2023-10-19T21:45:17;62.40;;;33.30;;
82948;SDS011;72736;50.236;18.876;2023-10-19T21:50:23;66.70;;;33.30;;
82948;SDS011;72736;50.236;18.876;2023-10-19T21:55:32;64.30;;;33.70;;
82948;SDS011;72736;50.236;18.876;2023-10-19T22:00:38;67.70;;;35.60;;
82948;SDS011;72736;50.236;18.876;2023-10-19T22:05:46;67.20;;;35.30;;
82948;SDS011;72736;50.236;18.876;2023-10-19T22:10:52;78.60;;;39.20;;
82948;SDS011;72736;50.236;18.876;2023-10-19T22:15:58;69.20;;;36.50;;
82948;SDS011;72736;50.236;18.876;2023-10-19T22:21:06;72.90;;;37.70;;
82948;SDS011;72736;50.236;18.876;2023-10-19T22:26:12;76.40;;;40.70;;
82948;SDS011;72736;50.236;18.876;2023-10-19T22:31:19;67.60;;;34.60;;
82948;SDS011;72736;50.236;18.876;2023-10-19T22:36:25;67.60;;;36.20;;
82948;SDS011;72736;50.236;18.876;2023-10-19T22:41:30;71.50;;;36.80;;
82948;SDS011;72736;50.236;18.876;2023-10-19T22:46:36;75.50;;;36.30;;
82948;SDS011;72736;50.236;18.876;2023-10-19T22:51:42;75.50;;;39.70;;
82948;SDS011;72736;50.236;18.876;2023-10-19T22:56:48;71.80;;;37.70;;
82948;SDS011;72736;50.236;18.876;2023-10-19T23:06:59;73.40;;;38.50;;
82948;SDS011;72736;50.236;18.876;2023-10-19T23:12:07;73.40;;;38.00;;
82948;SDS011;72736;50.236;18.876;2023-10-19T23:17:17;68.10;;;36.20;;
82948;SDS011;72736;50.236;18.876;2023-10-19T23:22:25;68.30;;;35.00;;
82948;SDS011;72736;50.236;18.876;2023-10-19T23:27:32;65.00;;;34.90;;
82948;SDS011;72736;50.236;18.876;2023-10-19T23:32:38;66.50;;;35.10;;
82948;SDS011;72736;50.236;18.876;2023-10-19T23:42:48;59.30;;;32.90;;
82948;SDS011;72736;50.236;18.876;2023-10-19T23:47:54;64.10;;;34.10;;
82948;SDS011;72736;50.236;18.876;2023-10-19T23:53:00;60.80;;;32.90;;
82948;SDS011;72736;50.236;18.876;2023-10-19T23:58:05;59.70;;;32.10;;
